sensor_id;sensor_type;location;lat;lon;timestamp;pressure;altitude;pressure_sealevel;temperature;humidity
68197;BME280;55019;49.382;11.358;2023-07-30T00:01:41;96194.41;;;17.22;100.00
68197;BME280;55019;49.382;11.358;2023-07-30T00:04:07;96199.81;;;17.27;100.00
68197;BME280;55019;49.382;11.358;2023-07-30T00:06:32;96201.34;;;17.10;100.00
68197;BME280;55019;49.382;11.358;2023-07-30T00:08:58;96197.91;;;17.09;100.00
68197;BME280;55019;49.382;11.358;2023-07-30T00:11:23;96206.03;;;16.95;100.00
68197;BME280;55019;49.382;11.358;2023-07-30T00:13:49;96212.00;;;17.02;100.00
68197;BME280;55019;49.382;11.358;2023-07-30T00:16:15;96213.59;;;17.09;100.00
68197;BME280;55019;49.382;11.358;2023-07-30T00:18:40;96210.72;;;17.17;100.00
68197;BME280;55019;49.382;11.358;2023-07-30T00:21:06;96216.59;;;17.13;100.00
68197;BME280;55019;49.382;11.358;2023-07-30T00:23:32;96214.44;;;17.03;100.00
68197;BME280;55019;49.382;11.358;2023-07-30T00:25:57;96212.66;;;16.97;100.00
68197;BME280;55019;49.382;11.358;2023-07-30T00:28:23;96210.00;;;17.04;100.00
68197;BME280;55019;49.382;11.358;2023-07-30T00:30:48;96211.66;;;16.98;100.00
68197;BME280;55019;49.382;11.358;2023-07-30T00:33:14;96211.66;;;16.98;100.00
68197;BME280;55019;49.382;11.358;2023-07-30T00:35:40;96214.28;;;16.92;100.00
68197;BME280;55019;49.382;11.358;2023-07-30T00:38:05;96217.59;;;17.12;100.00
68197;BME280;55019;49.382;11.358;2023-07-30T00:40:31;96221.22;;;17.11;100.00
68197;BME280;55019;49.382;11.358;2023-07-30T00:42:56;96218.06;;;17.02;100.00
68197;BME280;55019;49.382;11.358;2023-07-30T00:45:22;96225.50;;;16.99;100.00
68197;BME280;55019;49.382;11.358;2023-07-30T00:47:48;96233.13;;;17.00;100.00
68197;BME280;55019;49.382;11.358;2023-07-30T00:50:15;96231.00;;;17.15;100.00
68197;BME280;55019;49.382;11.358;2023-07-30T00:52:43;96233.09;;;17.31;100.00
68197;BME280;55019;49.382;11.358;2023-07-30T00:55:09;96231.28;;;17.32;100.00
68197;BME280;55019;49.382;11.358;2023-07-30T00:57:36;96231.72;;;17.35;100.00
68197;BME280;55019;49.382;11.358;2023-07-30T01:00:03;96233.91;;;17.32;100.00
68197;BME280;55019;49.382;11.358;2023-07-30T01:02:31;96227.22;;;17.42;100.00
68197;BME280;55019;49.382;11.358;2023-07-30T01:04:57;96232.88;;;17.39;100.00
68197;BME280;55019;49.382;11.358;2023-07-30T01:07:25;96215.81;;;17.37;100.00
68197;BME280;55019;49.382;11.358;2023-07-30T01:09:51;96213.16;;;17.43;100.00
68197;BME280;55019;49.382;11.358;2023-07-30T01:12:17;96207.06;;;17.49;100.00
68197;BME280;55019;49.382;11.358;2023-07-30T01:14:45;96204.50;;;17.42;100.00
68197;BME280;55019;49.382;11.358;2023-07-30T01:17:13;96209.41;;;17.57;100.00
68197;BME280;55019;49.382;11.358;2023-07-30T01:19:39;96210.44;;;17.56;100.00
68197;BME280;55019;49.382;11.358;2023-07-30T01:22:05;96210.00;;;17.59;100.00
68197;BME280;55019;49.382;11.358;2023-07-30T01:24:30;96198.81;;;17.52;100.00
68197;BME280;55019;49.382;11.358;2023-07-30T01:26:59;96202.75;;;17.61;100.00
68197;BME280;55019;49.382;11.358;2023-07-30T01:32:04;96209.94;;;17.65;100.00
68197;BME280;55019;49.382;11.358;2023-07-30T01:34:34;96214.91;;;17.49;100.00
68197;BME280;55019;49.382;11.358;2023-07-30T01:37:00;96215.50;;;17.51;100.00
68197;BME280;55019;49.382;11.358;2023-07-30T01:39:27;96226.00;;;17.44;100.00
68197;BME280;55019;49.382;11.358;2023-07-30T01:41:54;96222.09;;;17.53;100.00
68197;BME280;55019;49.382;11.358;2023-07-30T01:44:20;96218.03;;;17.57;100.00
68197;BME280;55019;49.382;11.358;2023-07-30T01:46:46;96214.97;;;17.42;100.00
68197;BME280;55019;49.382;11.358;2023-07-30T01:49:11;96209.69;;;17.18;100.00
68197;BME280;55019;49.382;11.358;2023-07-30T01:51:37;96213.06;;;17.25;100.00
68197;BME280;55019;49.382;11.358;2023-07-30T01:54:03;96220.38;;;17.17;100.00
68197;BME280;55019;49.382;11.358;2023-07-30T01:56:29;96214.72;;;17.20;100.00
68197;BME280;55019;49.382;11.358;2023-07-30T01:58:54;96210.25;;;17.27;100.00
68197;BME280;55019;49.382;11.358;2023-07-30T02:01:20;96211.53;;;17.18;100.00
68197;BME280;55019;49.382;11.358;2023-07-30T02:03:46;96220.44;;;17.04;100.00
68197;BME280;55019;49.382;11.358;2023-07-30T02:06:12;96216.16;;;16.85;100.00
68197;BME280;55019;49.382;11.358;2023-07-30T02:08:38;96224.81;;;16.79;100.00
68197;BME280;55019;49.382;11.358;2023-07-30T02:11:04;96220.19;;;16.81;100.00
68197;BME280;55019;49.382;11.358;2023-07-30T02:13:29;96215.56;;;16.83;100.00
68197;BME280;55019;49.382;11.358;2023-07-30T02:15:55;96204.13;;;16.84;100.00
68197;BME280;55019;49.382;11.358;2023-07-30T02:18:21;96211.38;;;16.75;100.00
68197;BME280;55019;49.382;11.358;2023-07-30T02:20:47;96211.19;;;16.77;100.00
68197;BME280;55019;49.382;11.358;2023-07-30T02:23:17;96204.28;;;16.89;100.00
68197;BME280;55019;49.382;11.358;2023-07-30T02:25:43;96189.69;;;17.06;100.00
68197;BME280;55019;49.382;11.358;2023-07-30T02:28:09;96171.50;;;17.24;100.00
68197;BME280;55019;49.382;11.358;2023-07-30T02:30:36;96168.00;;;17.12;100.00
68197;BME280;55019;49.382;11.358;2023-07-30T02:33:01;96189.50;;;17.07;100.00
68197;BME280;55019;49.382;11.358;2023-07-30T02:35:27;96193.28;;;17.11;100.00
68197;BME280;55019;49.382;11.358;2023-07-30T02:37:53;96205.72;;;17.16;100.00
68197;BME280;55019;49.382;11.358;2023-07-30T02:40:19;96213.63;;;17.03;100.00
68197;BME280;55019;49.382;11.358;2023-07-30T02:42:44;96218.84;;;17.03;100.00
68197;BME280;55019;49.382;11.358;2023-07-30T02:45:10;96226.97;;;16.88;100.00
68197;BME280;55019;49.382;11.358;2023-07-30T02:47:36;96221.06;;;16.68;100.00
68197;BME280;55019;49.382;11.358;2023-07-30T02:50:03;96228.03;;;16.81;100.00
68197;BME280;55019;49.382;11.358;2023-07-30T02:52:29;96225.25;;;16.76;100.00
68197;BME280;55019;49.382;11.358;2023-07-30T02:54:55;96219.91;;;16.95;100.00
68197;BME280;55019;49.382;11.358;2023-07-30T02:57:20;96214.56;;;17.15;100.00
68197;BME280;55019;49.382;11.358;2023-07-30T02:59:46;96216.00;;;17.11;100.00
68197;BME280;55019;49.382;11.358;2023-07-30T03:02:12;96203.28;;;16.90;100.00
68197;BME280;55019;49.382;11.358;2023-07-30T03:04:38;96225.69;;;16.66;100.00
68197;BME280;55019;49.382;11.358;2023-07-30T03:07:04;96233.06;;;16.76;100.00
68197;BME280;55019;49.382;11.358;2023-07-30T03:09:29;96231.88;;;16.72;100.00
68197;BME280;55019;49.382;11.358;2023-07-30T03:11:55;96233.50;;;16.66;100.00
68197;BME280;55019;49.382;11.358;2023-07-30T03:14:21;96232.31;;;16.69;100.00
68197;BME280;55019;49.382;11.358;2023-07-30T03:16:48;96243.50;;;16.76;100.00
68197;BME280;55019;49.382;11.358;2023-07-30T03:19:14;96244.75;;;16.67;100.00
68197;BME280;55019;49.382;11.358;2023-07-30T03:21:41;96239.13;;;16.70;100.00
68197;BME280;55019;49.382;11.358;2023-07-30T03:24:07;96241.97;;;16.62;100.00
68197;BME280;55019;49.382;11.358;2023-07-30T03:26:32;96249.56;;;16.63;100.00
68197;BME280;55019;49.382;11.358;2023-07-30T03:28:58;96251.31;;;16.76;100.00
68197;BME280;55019;49.382;11.358;2023-07-30T03:31:24;96249.34;;;16.71;100.00
68197;BME280;55019;49.382;11.358;2023-07-30T03:33:50;96249.50;;;16.76;100.00
68197;BME280;55019;49.382;11.358;2023-07-30T03:36:15;96249.09;;;16.79;100.00
68197;BME280;55019;49.382;11.358;2023-07-30T03:38:42;96250.97;;;16.66;100.00
68197;BME280;55019;49.382;11.358;2023-07-30T03:41:10;96261.34;;;16.79;100.00
68197;BME280;55019;49.382;11.358;2023-07-30T03:43:36;96257.56;;;16.75;100.00
68197;BME280;55019;49.382;11.358;2023-07-30T03:46:02;96262.25;;;16.60;100.00
68197;BME280;55019;49.382;11.358;2023-07-30T03:48:28;96265.88;;;16.59;100.00
68197;BME280;55019;49.382;11.358;2023-07-30T03:50:55;96264.63;;;16.61;100.00
68197;BME280;55019;49.382;11.358;2023-07-30T03:53:21;96267.84;;;16.63;100.00
68197;BME280;55019;49.382;11.358;2023-07-30T03:55:47;96269.25;;;16.66;100.00
68197;BME280;55019;49.382;11.358;2023-07-30T03:58:13;96268.81;;;16.69;100.00
68197;BME280;55019;49.382;11.358;2023-07-30T04:00:39;96278.03;;;16.71;100.00
68197;BME280;55019;49.382;11.358;2023-07-30T04:03:05;96275.66;;;16.70;100.00
68197;BME280;55019;49.382;11.358;2023-07-30T04:05:30;96277.06;;;16.66;100.00
68197;BME280;55019;49.382;11.358;2023-07-30T04:07:56;96278.44;;;16.68;100.00
68197;BME280;55019;49.382;11.358;2023-07-30T04:10:22;96275.50;;;16.52;100.00
68197;BME280;55019;49.382;11.358;2023-07-30T04:12:48;96277.28;;;16.58;100.00
68197;BME280;55019;49.382;11.358;2023-07-30T04:15:15;96272.88;;;16.58;100.00
68197;BME280;55019;49.382;11.358;2023-07-30T04:17:41;96263.63;;;16.62;100.00
68197;BME280;55019;49.382;11.358;2023-07-30T04:20:08;96268.75;;;16.82;100.00
68197;BME280;55019;49.382;11.358;2023-07-30T04:22:37;96272.22;;;16.69;100.00
68197;BME280;55019;49.382;11.358;2023-07-30T04:25:04;96271.44;;;16.62;100.00
68197;BME280;55019;49.382;11.358;2023-07-30T04:27:30;96271.69;;;16.61;100.00
68197;BME280;55019;49.382;11.358;2023-07-30T04:29:55;96270.88;;;16.54;100.00
68197;BME280;55019;49.382;11.358;2023-07-30T04:32:21;96273.69;;;16.59;100.00
68197;BME280;55019;49.382;11.358;2023-07-30T04:34:47;96276.88;;;16.61;100.00
68197;BME280;55019;49.382;11.358;2023-07-30T04:37:13;96280.44;;;16.73;100.00
68197;BME280;55019;49.382;11.358;2023-07-30T04:39:39;96275.22;;;16.73;100.00
68197;BME280;55019;49.382;11.358;2023-07-30T04:42:05;96272.78;;;16.78;100.00
68197;BME280;55019;49.382;11.358;2023-07-30T04:44:30;96274.75;;;16.82;100.00
68197;BME280;55019;49.382;11.358;2023-07-30T04:47:02;96272.63;;;16.73;100.00
68197;BME280;55019;49.382;11.358;2023-07-30T04:49:28;96284.91;;;16.53;100.00
68197;BME280;55019;49.382;11.358;2023-07-30T04:51:54;96286.16;;;16.44;100.00
68197;BME280;55019;49.382;11.358;2023-07-30T04:54:20;96292.91;;;16.64;100.00
68197;BME280;55019;49.382;11.358;2023-07-30T04:56:45;96306.59;;;16.60;100.00
68197;BME280;55019;49.382;11.358;2023-07-30T04:59:11;96292.97;;;16.45;100.00
68197;BME280;55019;49.382;11.358;2023-07-30T05:01:37;96297.78;;;16.54;100.00
68197;BME280;55019;49.382;11.358;2023-07-30T05:04:03;96301.38;;;16.53;100.00
68197;BME280;55019;49.382;11.358;2023-07-30T05:06:29;96294.97;;;16.49;100.00
68197;BME280;55019;49.382;11.358;2023-07-30T05:08:54;96295.34;;;16.53;100.00
68197;BME280;55019;49.382;11.358;2023-07-30T05:11:20;96295.34;;;16.53;100.00
68197;BME280;55019;49.382;11.358;2023-07-30T05:13:46;96298.41;;;16.43;100.00
68197;BME280;55019;49.382;11.358;2023-07-30T05:16:11;96305.66;;;16.35;100.00
68197;BME280;55019;49.382;11.358;2023-07-30T05:18:37;96310.22;;;16.46;100.00
68197;BME280;55019;49.382;11.358;2023-07-30T05:21:03;96308.03;;;16.43;100.00
68197;BME280;55019;49.382;11.358;2023-07-30T05:23:28;96314.63;;;16.52;100.00
68197;BME280;55019;49.382;11.358;2023-07-30T05:25:54;96308.56;;;16.58;100.00
68197;BME280;55019;49.382;11.358;2023-07-30T05:28:19;96292.50;;;16.67;100.00
68197;BME280;55019;49.382;11.358;2023-07-30T05:30:45;96306.91;;;16.76;100.00
68197;BME280;55019;49.382;11.358;2023-07-30T05:33:11;96317.66;;;16.93;100.00
68197;BME280;55019;49.382;11.358;2023-07-30T05:35:36;96323.28;;;16.96;100.00
68197;BME280;55019;49.382;11.358;2023-07-30T05:38:02;96320.59;;;17.09;100.00
68197;BME280;55019;49.382;11.358;2023-07-30T05:40:28;96316.25;;;16.97;100.00
68197;BME280;55019;49.382;11.358;2023-07-30T05:42:53;96317.38;;;17.14;100.00
68197;BME280;55019;49.382;11.358;2023-07-30T05:45:19;96325.97;;;17.21;100.00
68197;BME280;55019;49.382;11.358;2023-07-30T05:47:45;96324.97;;;17.22;100.00
68197;BME280;55019;49.382;11.358;2023-07-30T05:50:10;96321.28;;;17.36;100.00
68197;BME280;55019;49.382;11.358;2023-07-30T05:52:36;96333.31;;;17.30;100.00
68197;BME280;55019;49.382;11.358;2023-07-30T05:55:02;96335.06;;;17.12;100.00
68197;BME280;55019;49.382;11.358;2023-07-30T05:57:27;96339.28;;;17.13;100.00
68197;BME280;55019;49.382;11.358;2023-07-30T05:59:53;96342.91;;;17.05;100.00
68197;BME280;55019;49.382;11.358;2023-07-30T06:02:19;96340.50;;;17.04;100.00
68197;BME280;55019;49.382;11.358;2023-07-30T06:04:44;96338.06;;;17.09;100.00
68197;BME280;55019;49.382;11.358;2023-07-30T06:07:10;96331.38;;;16.88;100.00
68197;BME280;55019;49.382;11.358;2023-07-30T06:09:36;96333.31;;;16.93;100.00
68197;BME280;55019;49.382;11.358;2023-07-30T06:12:02;96338.19;;;16.83;100.00
68197;BME280;55019;49.382;11.358;2023-07-30T06:14:28;96345.06;;;16.71;100.00
68197;BME280;55019;49.382;11.358;2023-07-30T06:16:54;96342.63;;;16.76;100.00
68197;BME280;55019;49.382;11.358;2023-07-30T06:19:20;96344.06;;;16.65;100.00
68197;BME280;55019;49.382;11.358;2023-07-30T06:21:46;96344.66;;;16.74;100.00
68197;BME280;55019;49.382;11.358;2023-07-30T06:24:11;96348.66;;;16.76;100.00
68197;BME280;55019;49.382;11.358;2023-07-30T06:26:37;96352.66;;;16.85;100.00
68197;BME280;55019;49.382;11.358;2023-07-30T06:29:03;96358.66;;;16.79;100.00
68197;BME280;55019;49.382;11.358;2023-07-30T06:31:29;96353.25;;;16.87;100.00
68197;BME280;55019;49.382;11.358;2023-07-30T06:33:55;96353.38;;;16.99;100.00
68197;BME280;55019;49.382;11.358;2023-07-30T06:36:21;96349.72;;;17.13;100.00
68197;BME280;55019;49.382;11.358;2023-07-30T06:38:46;96334.16;;;17.37;100.00
68197;BME280;55019;49.382;11.358;2023-07-30T06:41:12;96324.22;;;17.76;100.00
68197;BME280;55019;49.382;11.358;2023-07-30T06:43:38;96327.41;;;18.27;100.00
68197;BME280;55019;49.382;11.358;2023-07-30T06:46:04;96322.38;;;18.80;100.00
68197;BME280;55019;49.382;11.358;2023-07-30T06:48:30;96334.97;;;18.53;100.00
68197;BME280;55019;49.382;11.358;2023-07-30T06:50:56;96340.78;;;18.37;100.00
68197;BME280;55019;49.382;11.358;2023-07-30T06:53:22;96345.16;;;18.19;100.00
68197;BME280;55019;49.382;11.358;2023-07-30T06:55:48;96347.19;;;18.41;100.00
68197;BME280;55019;49.382;11.358;2023-07-30T06:58:13;96354.69;;;18.56;100.00
68197;BME280;55019;49.382;11.358;2023-07-30T07:00:39;96348.38;;;18.63;100.00
68197;BME280;55019;49.382;11.358;2023-07-30T07:03:05;96347.97;;;18.78;100.00
68197;BME280;55019;49.382;11.358;2023-07-30T07:05:31;96354.09;;;18.72;100.00
68197;BME280;55019;49.382;11.358;2023-07-30T07:07:57;96354.81;;;18.79;100.00
68197;BME280;55019;49.382;11.358;2023-07-30T07:10:22;96353.47;;;18.76;100.00
68197;BME280;55019;49.382;11.358;2023-07-30T07:12:48;96350.88;;;19.05;100.00
68197;BME280;55019;49.382;11.358;2023-07-30T07:15:15;96362.47;;;19.16;100.00
68197;BME280;55019;49.382;11.358;2023-07-30T07:17:41;96356.88;;;19.42;100.00
68197;BME280;55019;49.382;11.358;2023-07-30T07:20:06;96355.09;;;19.54;100.00
68197;BME280;55019;49.382;11.358;2023-07-30T07:22:33;96367.81;;;19.80;100.00
68197;BME280;55019;49.382;11.358;2023-07-30T07:24:59;96364.22;;;19.63;100.00
68197;BME280;55019;49.382;11.358;2023-07-30T07:27:24;96355.91;;;19.54;100.00
68197;BME280;55019;49.382;11.358;2023-07-30T07:29:51;96368.63;;;19.51;100.00
68197;BME280;55019;49.382;11.358;2023-07-30T07:32:17;96364.47;;;19.14;100.00
68197;BME280;55019;49.382;11.358;2023-07-30T07:34:49;96363.75;;;19.07;100.00
68197;BME280;55019;49.382;11.358;2023-07-30T07:37:16;96372.94;;;18.80;100.00
68197;BME280;55019;49.382;11.358;2023-07-30T07:39:44;96364.66;;;18.83;100.00
68197;BME280;55019;49.382;11.358;2023-07-30T07:42:11;96369.56;;;19.09;100.00
68197;BME280;55019;49.382;11.358;2023-07-30T07:44:37;96358.38;;;19.02;100.00
68197;BME280;55019;49.382;11.358;2023-07-30T07:47:03;96353.63;;;19.10;100.00
68197;BME280;55019;49.382;11.358;2023-07-30T07:49:29;96358.94;;;19.04;100.00
68197;BME280;55019;49.382;11.358;2023-07-30T07:51:54;96349.91;;;18.89;100.00
68197;BME280;55019;49.382;11.358;2023-07-30T07:54:20;96350.25;;;18.92;100.00
68197;BME280;55019;49.382;11.358;2023-07-30T07:56:46;96361.75;;;18.73;100.00
68197;BME280;55019;49.382;11.358;2023-07-30T07:59:12;96360.94;;;18.73;100.00
68197;BME280;55019;49.382;11.358;2023-07-30T08:01:37;96356.91;;;18.52;100.00
68197;BME280;55019;49.382;11.358;2023-07-30T08:04:03;96356.47;;;18.55;100.00
68197;BME280;55019;49.382;11.358;2023-07-30T08:06:31;96356.00;;;18.47;100.00
68197;BME280;55019;49.382;11.358;2023-07-30T08:08:57;96359.25;;;18.60;100.00
68197;BME280;55019;49.382;11.358;2023-07-30T08:11:23;96363.47;;;18.79;100.00
68197;BME280;55019;49.382;11.358;2023-07-30T08:13:49;96368.81;;;18.91;100.00
68197;BME280;55019;49.382;11.358;2023-07-30T08:16:14;96363.25;;;18.63;100.00
68197;BME280;55019;49.382;11.358;2023-07-30T08:18:40;96372.75;;;18.57;100.00
68197;BME280;55019;49.382;11.358;2023-07-30T08:21:06;96371.53;;;18.60;100.00
68197;BME280;55019;49.382;11.358;2023-07-30T08:23:31;96364.34;;;18.73;100.00
68197;BME280;55019;49.382;11.358;2023-07-30T08:25:57;96355.13;;;18.89;100.00
68197;BME280;55019;49.382;11.358;2023-07-30T08:28:23;96366.84;;;18.68;100.00
68197;BME280;55019;49.382;11.358;2023-07-30T08:30:49;96373.19;;;18.54;100.00
68197;BME280;55019;49.382;11.358;2023-07-30T08:33:14;96372.34;;;18.60;100.00
68197;BME280;55019;49.382;11.358;2023-07-30T08:35:40;96357.88;;;18.93;100.00
68197;BME280;55019;49.382;11.358;2023-07-30T08:38:06;96356.78;;;18.83;100.00
68197;BME280;55019;49.382;11.358;2023-07-30T08:40:32;96357.00;;;18.99;100.00
68197;BME280;55019;49.382;11.358;2023-07-30T08:42:57;96356.03;;;19.12;100.00
68197;BME280;55019;49.382;11.358;2023-07-30T08:45:23;96346.84;;;19.39;100.00
68197;BME280;55019;49.382;11.358;2023-07-30T08:47:49;96345.28;;;19.90;100.00
68197;BME280;55019;49.382;11.358;2023-07-30T08:50:15;96350.47;;;20.20;100.00
68197;BME280;55019;49.382;11.358;2023-07-30T08:52:41;96357.53;;;20.31;100.00
68197;BME280;55019;49.382;11.358;2023-07-30T08:55:08;96353.63;;;20.44;100.00
68197;BME280;55019;49.382;11.358;2023-07-30T08:57:34;96352.50;;;20.41;100.00
68197;BME280;55019;49.382;11.358;2023-07-30T09:00:03;96352.53;;;19.77;100.00
68197;BME280;55019;49.382;11.358;2023-07-30T09:02:41;96360.75;;;19.92;100.00
68197;BME280;55019;49.382;11.358;2023-07-30T09:05:08;96362.75;;;20.08;100.00
68197;BME280;55019;49.382;11.358;2023-07-30T09:07:34;96359.59;;;20.29;100.00
68197;BME280;55019;49.382;11.358;2023-07-30T09:10:00;96358.28;;;20.65;100.00
68197;BME280;55019;49.382;11.358;2023-07-30T09:12:30;96348.22;;;21.36;100.00
68197;BME280;55019;49.382;11.358;2023-07-30T09:14:56;96345.84;;;21.51;100.00
68197;BME280;55019;49.382;11.358;2023-07-30T09:17:22;96348.53;;;21.40;100.00
68197;BME280;55019;49.382;11.358;2023-07-30T09:19:48;96343.53;;;21.83;100.00
68197;BME280;55019;49.382;11.358;2023-07-30T09:22:32;96345.38;;;22.15;100.00
68197;BME280;55019;49.382;11.358;2023-07-30T09:25:07;96351.84;;;22.07;100.00
68197;BME280;55019;49.382;11.358;2023-07-30T09:27:33;96349.03;;;21.81;100.00
68197;BME280;55019;49.382;11.358;2023-07-30T09:30:02;96356.81;;;20.92;100.00
68197;BME280;55019;49.382;11.358;2023-07-30T09:32:30;96364.78;;;20.97;100.00
68197;BME280;55019;49.382;11.358;2023-07-30T09:35:03;96355.66;;;20.88;100.00
68197;BME280;55019;49.382;11.358;2023-07-30T09:37:30;96358.41;;;20.93;100.00
68197;BME280;55019;49.382;11.358;2023-07-30T09:39:57;96359.81;;;21.12;100.00
68197;BME280;55019;49.382;11.358;2023-07-30T09:42:27;96354.16;;;20.81;100.00
68197;BME280;55019;49.382;11.358;2023-07-30T09:44:53;96362.88;;;20.70;100.00
68197;BME280;55019;49.382;11.358;2023-07-30T09:47:19;96347.91;;;20.82;100.00
68197;BME280;55019;49.382;11.358;2023-07-30T09:49:44;96350.81;;;21.92;100.00
68197;BME280;55019;49.382;11.358;2023-07-30T09:52:11;96347.88;;;22.38;100.00
68197;BME280;55019;49.382;11.358;2023-07-30T09:54:37;96351.38;;;22.27;100.00
68197;BME280;55019;49.382;11.358;2023-07-30T09:57:04;96355.00;;;21.21;100.00
68197;BME280;55019;49.382;11.358;2023-07-30T09:59:30;96350.41;;;21.00;100.00
68197;BME280;55019;49.382;11.358;2023-07-30T10:01:56;96340.66;;;21.68;100.00
68197;BME280;55019;49.382;11.358;2023-07-30T10:04:22;96340.50;;;22.56;100.00
68197;BME280;55019;49.382;11.358;2023-07-30T10:06:52;96341.41;;;22.29;100.00
68197;BME280;55019;49.382;11.358;2023-07-30T10:09:20;96341.00;;;22.37;100.00
68197;BME280;55019;49.382;11.358;2023-07-30T10:11:51;96337.56;;;22.74;100.00
68197;BME280;55019;49.382;11.358;2023-07-30T10:14:20;96336.84;;;23.22;100.00
68197;BME280;55019;49.382;11.358;2023-07-30T10:16:52;96342.81;;;22.53;100.00
68197;BME280;55019;49.382;11.358;2023-07-30T10:19:22;96338.78;;;22.12;100.00
68197;BME280;55019;49.382;11.358;2023-07-30T10:21:48;96334.97;;;21.31;100.00
68197;BME280;55019;49.382;11.358;2023-07-30T10:24:14;96338.69;;;21.19;100.00
68197;BME280;55019;49.382;11.358;2023-07-30T10:26:39;96337.69;;;21.08;100.00
68197;BME280;55019;49.382;11.358;2023-07-30T10:29:13;96333.06;;;20.76;100.00
68197;BME280;55019;49.382;11.358;2023-07-30T10:31:39;96341.66;;;20.60;100.00
68197;BME280;55019;49.382;11.358;2023-07-30T10:34:10;96343.69;;;20.69;100.00
68197;BME280;55019;49.382;11.358;2023-07-30T10:36:44;96347.22;;;20.63;100.00
68197;BME280;55019;49.382;11.358;2023-07-30T10:39:19;96348.50;;;20.38;100.00
68197;BME280;55019;49.382;11.358;2023-07-30T10:41:46;96344.75;;;20.23;100.00
68197;BME280;55019;49.382;11.358;2023-07-30T10:44:18;96354.34;;;20.29;100.00
68197;BME280;55019;49.382;11.358;2023-07-30T10:46:44;96343.94;;;20.22;100.00
68197;BME280;55019;49.382;11.358;2023-07-30T10:49:10;96344.59;;;20.86;100.00
68197;BME280;55019;49.382;11.358;2023-07-30T10:51:37;96345.25;;;20.93;100.00
68197;BME280;55019;49.382;11.358;2023-07-30T10:54:05;96353.59;;;20.79;100.00
68197;BME280;55019;49.382;11.358;2023-07-30T10:56:31;96343.59;;;20.30;100.00
68197;BME280;55019;49.382;11.358;2023-07-30T10:58:57;96354.78;;;20.48;100.00
68197;BME280;55019;49.382;11.358;2023-07-30T11:01:26;96362.34;;;19.81;100.00
68197;BME280;55019;49.382;11.358;2023-07-30T11:03:52;96386.53;;;19.24;100.00
68197;BME280;55019;49.382;11.358;2023-07-30T11:06:25;96397.00;;;19.06;100.00
68197;BME280;55019;49.382;11.358;2023-07-30T11:08:51;96402.06;;;18.84;100.00
68197;BME280;55019;49.382;11.358;2023-07-30T11:11:17;96409.44;;;18.93;100.00
68197;BME280;55019;49.382;11.358;2023-07-30T11:13:44;96412.91;;;19.05;100.00
68197;BME280;55019;49.382;11.358;2023-07-30T11:16:14;96406.59;;;19.30;100.00
68197;BME280;55019;49.382;11.358;2023-07-30T11:18:41;96419.88;;;19.47;100.00
68197;BME280;55019;49.382;11.358;2023-07-30T11:21:09;96411.72;;;19.96;100.00
68197;BME280;55019;49.382;11.358;2023-07-30T11:23:37;96410.88;;;20.02;100.00
68197;BME280;55019;49.382;11.358;2023-07-30T11:26:05;96416.47;;;20.05;100.00
68197;BME280;55019;49.382;11.358;2023-07-30T11:30:59;96405.66;;;20.25;100.00
68197;BME280;55019;49.382;11.358;2023-07-30T11:33:27;96403.94;;;20.76;100.00
68197;BME280;55019;49.382;11.358;2023-07-30T11:35:55;96408.53;;;20.46;100.00
68197;BME280;55019;49.382;11.358;2023-07-30T11:38:25;96415.00;;;20.66;100.00
68197;BME280;55019;49.382;11.358;2023-07-30T11:40:54;96420.63;;;20.70;100.00
68197;BME280;55019;49.382;11.358;2023-07-30T11:43:21;96412.41;;;20.89;100.00
68197;BME280;55019;49.382;11.358;2023-07-30T11:45:48;96413.19;;;21.01;100.00
68197;BME280;55019;49.382;11.358;2023-07-30T11:48:14;96411.78;;;21.10;100.00
68197;BME280;55019;49.382;11.358;2023-07-30T11:50:50;96411.13;;;21.03;100.00
68197;BME280;55019;49.382;11.358;2023-07-30T11:53:17;96415.00;;;21.52;100.00
68197;BME280;55019;49.382;11.358;2023-07-30T11:55:44;96405.13;;;21.70;100.00
68197;BME280;55019;49.382;11.358;2023-07-30T11:58:11;96410.41;;;21.87;100.00
68197;BME280;55019;49.382;11.358;2023-07-30T12:00:39;96410.19;;;21.88;100.00
68197;BME280;55019;49.382;11.358;2023-07-30T12:03:07;96408.09;;;21.90;100.00
68197;BME280;55019;49.382;11.358;2023-07-30T12:05:33;96414.19;;;22.23;100.00
68197;BME280;55019;49.382;11.358;2023-07-30T12:08:03;96421.09;;;22.95;100.00
68197;BME280;55019;49.382;11.358;2023-07-30T12:10:43;96421.47;;;23.42;100.00
68197;BME280;55019;49.382;11.358;2023-07-30T12:13:15;96418.66;;;23.27;100.00
68197;BME280;55019;49.382;11.358;2023-07-30T12:15:52;96415.09;;;23.00;100.00
68197;BME280;55019;49.382;11.358;2023-07-30T12:18:19;96417.41;;;22.75;100.00
68197;BME280;55019;49.382;11.358;2023-07-30T12:20:46;96404.84;;;22.82;100.00
68197;BME280;55019;49.382;11.358;2023-07-30T12:23:11;96405.88;;;22.81;100.00
68197;BME280;55019;49.382;11.358;2023-07-30T12:25:37;96409.25;;;22.27;100.00
68197;BME280;55019;49.382;11.358;2023-07-30T12:28:04;96402.53;;;22.03;100.00
68197;BME280;55019;49.382;11.358;2023-07-30T12:30:30;96409.81;;;21.68;100.00
68197;BME280;55019;49.382;11.358;2023-07-30T12:32:56;96415.09;;;21.57;100.00
68197;BME280;55019;49.382;11.358;2023-07-30T12:35:23;96406.34;;;21.79;100.00
68197;BME280;55019;49.382;11.358;2023-07-30T12:37:49;96409.63;;;22.19;100.00
68197;BME280;55019;49.382;11.358;2023-07-30T12:40:16;96405.28;;;22.74;100.00
68197;BME280;55019;49.382;11.358;2023-07-30T12:42:42;96404.06;;;23.19;100.00